createdAt,value
2023-02-20T00:02:12.684Z,1.63
2023-02-20T00:05:14.399Z,0.95
2023-02-20T00:08:15.998Z,0.63
2023-02-20T00:11:17.733Z,1.52
2023-02-20T00:14:19.380Z,1.63
2023-02-20T00:17:20.926Z,0.98
2023-02-20T00:20:23.660Z,0.95
2023-02-20T00:23:25.269Z,0.90
2023-02-20T00:26:26.900Z,0.65
2023-02-20T00:29:28.484Z,1.13
2023-02-20T00:32:30.066Z,0.50
2023-02-20T00:35:32.135Z,0.70
2023-02-20T00:38:33.788Z,1.33
2023-02-20T00:41:36.696Z,1.45
2023-02-20T00:44:38.245Z,0.70
2023-02-20T00:47:41.404Z,0.88
2023-02-20T00:50:42.997Z,0.77
2023-02-20T00:53:44.605Z,0.40
2023-02-20T00:56:46.213Z,0.57
2023-02-20T00:59:48.119Z,0.70
2023-02-20T01:02:49.696Z,0.85
2023-02-20T01:05:51.271Z,0.85
2023-02-20T01:08:54.971Z,0.65
2023-02-20T01:11:56.573Z,0.82
2023-02-20T01:14:58.115Z,0.60
2023-02-20T01:18:05.774Z,0.98
2023-02-20T01:21:07.314Z,1.40
2023-02-20T01:24:09.414Z,1.25
2023-02-20T01:27:10.986Z,0.70
2023-02-20T01:30:12.755Z,0.70
2023-02-20T01:33:14.646Z,0.65
2023-02-20T01:36:16.375Z,0.68
2023-02-20T01:39:22.759Z,1.10
2023-02-20T01:42:25.721Z,0.55
2023-02-20T01:45:33.613Z,1.02
2023-02-20T01:48:35.234Z,0.77
2023-02-20T01:51:39.036Z,0.70
2023-02-20T01:54:42.366Z,0.47
2023-02-20T01:57:48.546Z,0.50
2023-02-20T02:00:50.248Z,0.57
2023-02-20T02:03:54.890Z,0.60
2023-02-20T02:06:58.420Z,0.82
2023-02-20T02:10:04.429Z,0.73
2023-02-20T02:13:06.715Z,0.50
2023-02-20T02:16:25.607Z,0.63
2023-02-20T02:19:38.954Z,1.40
2023-02-20T02:22:52.813Z,0.50
2023-02-20T02:26:13.939Z,0.50
2023-02-20T02:29:18.620Z,0.13
2023-02-20T02:32:23.217Z,0.45
2023-02-20T02:35:26.952Z,0.70
2023-02-20T02:38:32.458Z,0.25
2023-02-20T02:41:41.848Z,0.50
2023-02-20T02:44:49.499Z,1.40
2023-02-20T02:47:53.778Z,0.63
2023-02-20T02:50:58.223Z,2.17
2023-02-20T02:54:10.952Z,0.40
2023-02-20T02:57:19.800Z,0.13
2023-02-20T03:00:26.463Z,0.90
2023-02-20T03:03:30.224Z,0.35
2023-02-20T03:06:34.664Z,0.60
2023-02-20T03:09:41.778Z,0.57
2023-02-20T03:12:45.481Z,0.77
2023-02-20T03:15:50.457Z,0.70
2023-02-20T03:18:55.419Z,0.20
2023-02-20T03:21:58.982Z,0.35
2023-02-20T03:25:03.990Z,0.77
2023-02-20T03:28:08.357Z,0.20
2023-02-20T03:31:21.563Z,0.55
2023-02-20T03:34:44.277Z,0.57
2023-02-20T03:38:07.205Z,0.47
2023-02-20T03:41:28.786Z,0.30
2023-02-20T03:44:32.301Z,0.50
2023-02-20T03:47:36.481Z,0.60
2023-02-20T03:50:57.416Z,0.50
2023-02-20T03:54:01.660Z,0.57
2023-02-20T03:57:05.516Z,0.70
2023-02-20T04:00:11.803Z,0.50
2023-02-20T04:03:28.282Z,0.75
2023-02-20T04:06:32.041Z,0.80
2023-02-20T04:09:35.303Z,0.43
2023-02-20T04:12:38.991Z,0.40
2023-02-20T04:15:41.443Z,0.90
2023-02-20T04:18:43.462Z,0.40
2023-02-20T04:21:48.560Z,0.30
2023-02-20T04:24:59.004Z,0.00
2023-02-20T04:28:04.292Z,0.68
2023-02-20T04:31:14.494Z,0.10
2023-02-20T04:34:17.251Z,0.20
2023-02-20T04:37:19.783Z,0.60
2023-02-20T04:40:25.015Z,0.63
2023-02-20T04:43:26.841Z,0.68
2023-02-20T04:46:28.635Z,0.03
2023-02-20T04:49:30.816Z,0.10
2023-02-20T04:52:34.863Z,0.43
2023-02-20T04:55:36.574Z,0.32
2023-02-20T04:58:46.414Z,0.45
2023-02-20T05:01:54.846Z,0.40
2023-02-20T05:04:56.395Z,0.55
2023-02-20T05:07:59.118Z,0.40
2023-02-20T05:11:00.839Z,0.47
2023-02-20T05:14:02.933Z,0.20
2023-02-20T05:17:04.564Z,0.50
2023-02-20T05:20:06.853Z,0.00
2023-02-20T05:23:08.647Z,0.55
2023-02-20T05:26:11.186Z,0.00
2023-02-20T05:29:13.891Z,0.88
2023-02-20T05:32:16.789Z,0.95
2023-02-20T05:35:18.592Z,0.65
2023-02-20T05:38:20.410Z,0.35
2023-02-20T05:41:22.297Z,0.52
2023-02-20T05:44:23.925Z,0.38
2023-02-20T05:47:25.679Z,0.47
2023-02-20T05:50:27.264Z,0.00
2023-02-20T05:53:30.657Z,0.05
2023-02-20T05:56:33.191Z,0.28
2023-02-20T05:59:35.150Z,0.40
2023-02-20T06:02:37.656Z,0.30
2023-02-20T06:05:39.473Z,0.75
2023-02-20T06:08:41.309Z,0.65
2023-02-20T06:11:43.001Z,1.00
2023-02-20T06:14:44.738Z,0.63
2023-02-20T06:17:46.309Z,0.90
2023-02-20T06:20:47.885Z,0.40
2023-02-20T06:23:50.665Z,0.50
2023-02-20T06:26:52.552Z,0.40
2023-02-20T06:29:54.144Z,0.65
2023-02-20T06:32:56.023Z,0.52
2023-02-20T06:35:57.610Z,0.60
2023-02-20T06:38:59.550Z,0.38
2023-02-20T06:42:01.168Z,0.80
2023-02-20T06:45:02.898Z,0.93
2023-02-20T06:48:05.789Z,0.80
2023-02-20T06:51:07.388Z,1.17
2023-02-20T06:54:11.537Z,1.13
2023-02-20T06:57:13.246Z,0.93
2023-02-20T07:00:15.388Z,0.32
2023-02-20T07:03:16.953Z,1.05
2023-02-20T07:06:18.620Z,0.70
2023-02-20T07:09:20.538Z,0.75
2023-02-20T07:12:22.193Z,0.90
2023-02-20T07:15:23.816Z,0.77
2023-02-20T07:18:27.360Z,1.13
2023-02-20T07:21:29.058Z,1.13
2023-02-20T07:24:30.903Z,0.80
2023-02-20T07:27:32.496Z,1.15
2023-02-20T07:30:34.597Z,1.15
2023-02-20T07:33:36.157Z,1.17
2023-02-20T07:36:38.869Z,1.35
2023-02-20T07:39:40.628Z,1.08
2023-02-20T07:42:42.300Z,0.63
2023-02-20T07:45:56.886Z,0.75
2023-02-20T07:48:58.510Z,0.65
2023-02-20T07:52:00.151Z,1.20
2023-02-20T07:55:01.718Z,0.77
2023-02-20T07:58:03.672Z,0.93
2023-02-20T08:01:05.252Z,1.15
2023-02-20T08:04:06.932Z,1.17
2023-02-20T08:07:09.066Z,1.63
2023-02-20T08:10:10.602Z,1.58
2023-02-20T08:13:12.214Z,0.85
2023-02-20T08:16:14.578Z,1.20
2023-02-20T08:19:16.421Z,0.90
2023-02-20T08:22:18.039Z,1.20
2023-02-20T08:25:19.745Z,1.13
2023-02-20T08:28:21.429Z,1.63
2023-02-20T08:31:32.174Z,1.15
2023-02-20T08:34:34.363Z,1.50
2023-02-20T08:37:35.975Z,1.23
2023-02-20T08:40:37.578Z,1.40
2023-02-20T08:43:40.098Z,1.50
2023-02-20T08:46:51.685Z,1.50
2023-02-20T08:49:53.258Z,1.42
2023-02-20T08:52:54.926Z,1.15
2023-02-20T08:55:56.556Z,1.65
2023-02-20T08:58:58.177Z,1.58
2023-02-20T09:01:59.797Z,1.70
2023-02-20T09:05:01.438Z,1.83
2023-02-20T09:08:03.981Z,2.17
2023-02-20T09:11:05.816Z,2.13
2023-02-20T09:14:07.738Z,1.52
2023-02-20T09:17:09.600Z,1.92
2023-02-20T09:20:11.829Z,1.77
2023-02-20T09:23:14.474Z,1.55
2023-02-20T09:26:18.553Z,1.65
2023-02-20T09:29:20.108Z,2.10
2023-02-20T09:32:21.842Z,2.15
2023-02-20T09:35:25.375Z,2.20
2023-02-20T09:38:28.506Z,1.77
2023-02-20T09:41:56.307Z,1.88
2023-02-20T09:45:12.781Z,2.20
2023-02-20T09:48:23.384Z,2.47
2023-02-20T09:51:26.344Z,1.88
2023-02-20T09:54:30.801Z,2.28
2023-02-20T09:57:33.234Z,1.35
2023-02-20T10:00:36.472Z,1.88
2023-02-20T10:03:50.149Z,0.20
2023-02-20T10:06:53.494Z,0.82
2023-02-20T10:09:55.638Z,0.35
2023-02-20T10:12:57.248Z,0.60
2023-02-20T10:16:03.478Z,0.43
2023-02-20T10:19:05.043Z,0.85
2023-02-20T10:22:15.464Z,0.10
2023-02-20T10:25:23.573Z,0.15
2023-02-20T10:28:25.960Z,0.40
2023-02-20T10:31:27.657Z,0.22
2023-02-20T10:34:32.644Z,0.20
2023-02-20T10:37:47.480Z,0.40
2023-02-20T10:40:53.848Z,0.20
2023-02-20T10:44:05.532Z,0.20
2023-02-20T10:47:14.232Z,0.20
2023-02-20T10:50:35.120Z,0.00
2023-02-20T10:53:39.493Z,0.40
2023-02-20T10:56:48.583Z,0.57
2023-02-20T11:00:05.227Z,0.20
2023-02-20T11:03:17.811Z,0.20
2023-02-20T11:06:21.080Z,0.03
2023-02-20T11:09:23.479Z,0.47
2023-02-20T11:12:32.383Z,0.68
2023-02-20T11:15:34.676Z,0.50
2023-02-20T11:18:38.406Z,0.00
2023-02-20T11:21:41.685Z,0.30
2023-02-20T11:24:44.067Z,0.63
2023-02-20T11:27:47.886Z,0.90
2023-02-20T11:31:00.275Z,0.17
2023-02-20T11:34:04.367Z,0.80
2023-02-20T11:37:06.200Z,0.30
2023-02-20T11:40:16.190Z,0.30
2023-02-20T11:43:17.746Z,0.30
2023-02-20T11:46:20.228Z,0.10
2023-02-20T11:49:24.881Z,0.38
2023-02-20T11:52:26.671Z,0.45
2023-02-20T11:55:29.603Z,0.13
2023-02-20T11:58:31.526Z,0.10
2023-02-20T12:01:34.656Z,0.43
2023-02-20T12:04:36.272Z,0.00
2023-02-20T12:07:37.973Z,0.38
2023-02-20T12:10:45.258Z,0.30
2023-02-20T12:13:52.582Z,0.05
2023-02-20T12:17:09.935Z,0.35
2023-02-20T12:20:19.036Z,0.47
2023-02-20T12:23:32.518Z,0.57
2023-02-20T12:26:44.499Z,0.38
2023-02-20T12:29:55.383Z,0.50
2023-02-20T12:33:15.829Z,0.52
2023-02-20T12:36:29.862Z,0.20
2023-02-20T12:39:44.104Z,0.32
2023-02-20T12:43:05.666Z,0.60
2023-02-20T12:46:22.378Z,0.20
2023-02-20T12:49:34.689Z,0.13
2023-02-20T12:52:45.349Z,0.10
2023-02-20T12:55:47.243Z,0.20
2023-02-20T12:58:56.013Z,0.38
2023-02-20T13:02:01.906Z,0.00
2023-02-20T13:05:04.386Z,0.45
2023-02-20T13:08:23.574Z,0.38
2023-02-20T13:11:26.479Z,0.55
2023-02-20T13:14:40.776Z,0.50
2023-02-20T13:17:45.494Z,0.40
2023-02-20T13:20:49.571Z,0.50
2023-02-20T13:23:53.221Z,0.35
2023-02-20T13:27:06.680Z,0.35
2023-02-20T13:30:21.843Z,0.22
2023-02-20T13:33:27.874Z,0.40
2023-02-20T13:36:29.409Z,0.20
2023-02-20T13:39:32.213Z,0.40
2023-02-20T13:42:34.587Z,0.20
2023-02-20T13:45:38.260Z,0.10
2023-02-20T13:48:42.210Z,0.35
2023-02-20T13:51:43.749Z,0.32
2023-02-20T13:54:45.486Z,0.13
2023-02-20T13:57:49.879Z,0.17
2023-02-20T14:00:52.948Z,0.43
2023-02-20T14:04:01.960Z,0.38
2023-02-20T14:07:03.917Z,0.20
2023-02-20T14:10:06.934Z,0.60
2023-02-20T14:13:16.261Z,0.10
2023-02-20T14:16:32.038Z,0.20
2023-02-20T14:19:37.916Z,0.20
2023-02-20T14:22:39.978Z,0.30
2023-02-20T14:25:49.348Z,0.30
2023-02-20T14:28:58.137Z,0.15
2023-02-20T14:32:01.016Z,0.20
2023-02-20T14:35:12.332Z,0.32
2023-02-20T14:38:32.832Z,0.60
2023-02-20T14:41:34.488Z,0.40
2023-02-20T14:44:36.118Z,0.40
2023-02-20T14:47:49.860Z,0.60
2023-02-20T14:51:03.424Z,0.50
2023-02-20T14:54:14.027Z,0.73
2023-02-20T14:57:15.819Z,0.50
2023-02-20T15:00:17.395Z,0.30
2023-02-20T15:03:29.743Z,0.60
2023-02-20T15:06:34.125Z,0.50
2023-02-20T15:09:40.362Z,0.30
2023-02-20T15:12:42.158Z,0.43
2023-02-20T15:15:46.021Z,0.40
2023-02-20T15:18:50.235Z,0.45
2023-02-20T15:21:58.827Z,0.50
2023-02-20T15:25:15.886Z,0.30
2023-02-20T15:28:17.424Z,0.30
2023-02-20T15:31:24.702Z,0.30
2023-02-20T15:34:34.320Z,0.35
2023-02-20T15:37:43.356Z,0.20
2023-02-20T15:40:50.498Z,0.45
2023-02-20T15:43:52.186Z,0.55
2023-02-20T15:46:54.964Z,0.52
2023-02-20T15:49:56.551Z,0.75
2023-02-20T15:52:58.826Z,0.63
2023-02-20T15:56:00.789Z,0.68
2023-02-20T15:59:04.745Z,0.70
2023-02-20T16:02:06.461Z,0.60
2023-02-20T16:05:08.085Z,0.50
2023-02-20T16:08:09.727Z,0.57
2023-02-20T16:11:11.846Z,0.43
2023-02-20T16:14:14.513Z,0.20
2023-02-20T16:17:19.326Z,0.30
2023-02-20T16:20:22.270Z,0.22
2023-02-20T16:23:23.905Z,0.60
2023-02-20T16:26:30.863Z,0.55
2023-02-20T16:29:33.500Z,0.35
2023-02-20T16:32:37.477Z,0.30
2023-02-20T16:35:39.131Z,0.50
2023-02-20T16:38:40.708Z,0.50
2023-02-20T16:41:42.487Z,0.30
2023-02-20T16:44:44.938Z,0.38
2023-02-20T16:47:53.963Z,0.50
2023-02-20T16:50:55.693Z,0.40
2023-02-20T16:53:57.798Z,0.60
2023-02-20T16:56:59.436Z,1.52
2023-02-20T17:00:01.310Z,1.25
2023-02-20T17:03:03.796Z,1.50
2023-02-20T17:06:05.469Z,1.40
2023-02-20T17:09:07.022Z,1.65
2023-02-20T17:12:08.666Z,1.73
2023-02-20T17:15:11.200Z,1.70
2023-02-20T17:18:12.814Z,1.92
2023-02-20T17:21:14.638Z,1.52
2023-02-20T17:24:17.250Z,1.05
2023-02-20T17:27:19.161Z,1.50
2023-02-20T17:30:22.428Z,0.88
2023-02-20T17:33:26.011Z,0.70
2023-02-20T17:36:27.749Z,0.70
2023-02-20T17:39:29.588Z,1.00
2023-02-20T17:42:31.911Z,0.55
2023-02-20T17:45:33.493Z,0.70
2023-02-20T17:48:35.056Z,0.68
2023-02-20T17:51:36.829Z,0.60
2023-02-20T17:54:39.770Z,0.60
2023-02-20T17:57:41.569Z,0.77
2023-02-20T18:00:43.154Z,0.85
2023-02-20T18:03:44.933Z,1.15
2023-02-20T18:06:46.582Z,0.90
2023-02-20T18:09:48.280Z,1.00
2023-02-20T18:13:02.663Z,1.20
2023-02-20T18:16:04.835Z,1.00
2023-02-20T18:19:10.639Z,0.93
2023-02-20T18:22:12.584Z,0.77
2023-02-20T18:25:14.159Z,0.90
2023-02-20T18:28:15.800Z,2.97
2023-02-20T18:31:18.247Z,1.67
2023-02-20T18:34:21.545Z,2.03
2023-02-20T18:37:23.161Z,2.03
2023-02-20T18:40:24.757Z,1.80
2023-02-20T18:43:26.668Z,2.88
2023-02-20T18:46:39.785Z,2.00
2023-02-20T18:49:41.502Z,1.45
2023-02-20T18:52:45.316Z,2.10
2023-02-20T18:55:46.953Z,1.42
2023-02-20T18:58:48.577Z,1.65
2023-02-20T19:01:50.647Z,2.05
2023-02-20T19:04:52.401Z,1.17
2023-02-20T19:07:55.962Z,1.33
2023-02-20T19:10:57.621Z,0.90
2023-02-20T19:13:59.271Z,1.20
2023-02-20T19:17:01.609Z,1.52
2023-02-20T19:20:08.858Z,1.33
2023-02-20T19:23:10.500Z,1.35
2023-02-20T19:26:19.626Z,1.27
2023-02-20T19:29:21.351Z,1.05
2023-02-20T19:32:23.104Z,1.52
2023-02-20T19:35:24.719Z,1.40
2023-02-20T19:38:26.393Z,1.00
2023-02-20T19:41:27.972Z,1.40
2023-02-20T19:44:29.633Z,1.67
2023-02-20T19:47:31.241Z,1.60
2023-02-20T19:50:33.102Z,2.33
2023-02-20T19:53:35.928Z,1.80
2023-02-20T19:56:37.611Z,4.53
2023-02-20T19:59:39.657Z,3.30
2023-02-20T20:02:41.282Z,2.63
2023-02-20T20:05:42.890Z,2.60
2023-02-20T20:09:09.368Z,0.90
2023-02-20T20:12:27.208Z,1.20
2023-02-20T20:15:29.561Z,0.57
2023-02-20T20:18:31.233Z,0.20
2023-02-20T20:21:33.824Z,0.55
2023-02-20T20:24:35.370Z,0.80
2023-02-20T20:27:37.493Z,0.38
2023-02-20T20:30:39.450Z,0.70
2023-02-20T20:33:41.294Z,0.50
2023-02-20T20:36:42.905Z,0.30
2023-02-20T20:39:47.104Z,0.38
2023-02-20T20:42:48.952Z,0.45
2023-02-20T20:45:50.666Z,0.60
2023-02-20T20:48:55.301Z,0.68
2023-02-20T20:51:56.889Z,0.80
2023-02-20T20:55:01.022Z,0.52
2023-02-20T20:58:05.147Z,0.40
2023-02-20T21:01:06.940Z,1.00
2023-02-20T21:04:08.784Z,0.60
2023-02-20T21:07:10.381Z,0.70
2023-02-20T21:10:15.068Z,0.85
2023-02-20T21:13:16.772Z,0.50
2023-02-20T21:16:18.842Z,0.73
2023-02-20T21:19:20.883Z,0.60
2023-02-20T21:22:23.357Z,0.68
2023-02-20T21:25:25.641Z,0.75
2023-02-20T21:28:27.529Z,0.82
2023-02-20T21:31:29.384Z,0.47
2023-02-20T21:34:31.125Z,1.13
2023-02-20T21:37:32.729Z,0.77
2023-02-20T21:40:34.427Z,0.90
2023-02-20T21:43:54.835Z,0.55
2023-02-20T21:47:00.395Z,0.70
2023-02-20T21:50:02.060Z,0.77
2023-02-20T21:53:03.646Z,0.60
2023-02-20T21:56:05.681Z,0.10
2023-02-20T21:59:07.286Z,0.30
2023-02-20T22:02:14.948Z,0.32
2023-02-20T22:05:16.492Z,0.40
2023-02-20T22:08:36.592Z,0.10
2023-02-20T22:11:56.909Z,0.20
2023-02-20T22:15:17.004Z,0.10
2023-02-20T22:18:37.269Z,0.22
2023-02-20T22:21:57.644Z,0.40
2023-02-20T22:25:18.073Z,0.40
2023-02-20T22:28:38.389Z,0.65
2023-02-20T22:31:58.726Z,0.60
2023-02-20T22:35:19.112Z,0.35
2023-02-20T22:38:39.263Z,0.40
2023-02-20T22:41:59.449Z,0.32
2023-02-20T22:45:19.898Z,0.25
2023-02-20T22:48:40.179Z,0.20
2023-02-20T22:52:05.354Z,0.38
2023-02-20T22:55:25.732Z,0.20
2023-02-20T22:58:45.943Z,0.35
2023-02-20T23:02:05.976Z,0.30
2023-02-20T23:05:26.456Z,0.30
2023-02-20T23:08:46.871Z,0.10
2023-02-20T23:12:06.939Z,0.20
2023-02-20T23:15:26.912Z,0.20
2023-02-20T23:18:47.069Z,0.30
2023-02-20T23:22:07.195Z,0.20
2023-02-20T23:25:27.787Z,0.15
2023-02-20T23:28:48.409Z,0.38
2023-02-20T23:32:08.677Z,0.17
2023-02-20T23:35:31.899Z,0.05
2023-02-20T23:38:52.181Z,0.20
2023-02-20T23:42:12.506Z,0.20
2023-02-20T23:45:32.829Z,0.20
2023-02-20T23:48:53.095Z,0.35
2023-02-20T23:52:16.631Z,0.25
2023-02-20T23:55:37.325Z,0.28
2023-02-20T23:58:57.680Z,0.10
